createdAt,value
2023-06-05T00:02:13.962Z,4.00
2023-06-05T00:04:42.677Z,4.78
2023-06-05T00:07:10.891Z,4.23
2023-06-05T00:09:39.569Z,3.87
2023-06-05T00:12:08.783Z,4.47
2023-06-05T00:14:37.928Z,4.00
2023-06-05T00:17:08.248Z,3.85
2023-06-05T00:19:38.336Z,5.40
2023-06-05T00:22:06.957Z,3.77
2023-06-05T00:24:35.498Z,4.57
2023-06-05T00:27:03.842Z,4.00
2023-06-05T00:29:32.557Z,3.77
2023-06-05T00:32:01.625Z,4.73
2023-06-05T00:34:30.271Z,4.10
2023-06-05T00:36:59.916Z,3.93
2023-06-05T00:39:28.651Z,4.28
2023-06-05T00:41:57.025Z,4.47
2023-06-05T00:44:25.688Z,4.30
2023-06-05T00:46:54.750Z,4.20
2023-06-05T00:49:23.486Z,4.00
2023-06-05T00:51:52.678Z,4.00
2023-06-05T00:54:23.497Z,4.90
2023-06-05T00:56:53.516Z,3.77
2023-06-05T00:59:22.727Z,3.77
2023-06-05T01:01:51.724Z,3.37
2023-06-05T01:04:20.720Z,3.77
2023-06-05T01:06:49.047Z,3.90
2023-06-05T01:09:18.005Z,3.00
2023-06-05T01:11:55.935Z,3.13
2023-06-05T01:14:28.966Z,3.33
2023-06-05T01:17:01.830Z,3.10
2023-06-05T01:19:32.107Z,3.00
2023-06-05T01:22:01.102Z,2.80
2023-06-05T01:24:31.166Z,3.13
2023-06-05T01:27:05.994Z,2.90
2023-06-05T01:29:39.975Z,2.90
2023-06-05T01:32:17.059Z,3.23
2023-06-05T01:34:49.887Z,2.90
2023-06-05T01:37:20.361Z,3.33
2023-06-05T01:39:52.428Z,3.03
2023-06-05T01:42:21.810Z,2.90
2023-06-05T01:44:50.672Z,2.50
2023-06-05T01:47:19.173Z,2.97
2023-06-05T01:49:47.784Z,3.00
2023-06-05T01:52:16.275Z,2.70
2023-06-05T01:54:47.405Z,2.80
2023-06-05T01:57:17.043Z,2.80
2023-06-05T01:59:46.743Z,2.73
2023-06-05T02:02:15.738Z,2.97
2023-06-05T02:04:48.693Z,2.73
2023-06-05T02:07:18.125Z,2.67
2023-06-05T02:09:46.687Z,3.00
2023-06-05T02:12:17.394Z,3.17
2023-06-05T02:14:46.808Z,2.93
2023-06-05T02:17:15.494Z,2.90
2023-06-05T02:19:44.227Z,3.03
2023-06-05T02:22:12.773Z,2.93
2023-06-05T02:24:41.572Z,2.77
2023-06-05T02:27:11.334Z,3.20
2023-06-05T02:29:41.387Z,2.90
2023-06-05T02:32:11.124Z,3.47
2023-06-05T02:34:39.881Z,4.03
2023-06-05T02:37:09.414Z,3.47
2023-06-05T02:39:37.952Z,3.00
2023-06-05T02:42:09.344Z,3.53
2023-06-05T02:44:37.934Z,3.77
2023-06-05T02:47:08.191Z,3.80
2023-06-05T02:49:38.177Z,3.20
2023-06-05T02:52:07.700Z,3.23
2023-06-05T02:54:36.429Z,3.20
2023-06-05T02:57:07.943Z,3.20
2023-06-05T02:59:40.805Z,2.80
2023-06-05T03:02:15.023Z,3.20
2023-06-05T03:04:50.136Z,3.00
2023-06-05T03:07:19.050Z,3.03
2023-06-05T03:09:48.007Z,3.20
2023-06-05T03:12:16.481Z,2.97
2023-06-05T03:14:45.328Z,3.20
2023-06-05T03:17:15.163Z,3.03
2023-06-05T03:19:43.961Z,2.73
2023-06-05T03:22:12.484Z,3.00
2023-06-05T03:24:41.244Z,3.00
2023-06-05T03:27:11.473Z,3.13
2023-06-05T03:29:40.750Z,3.10
2023-06-05T03:32:09.117Z,3.37
2023-06-05T03:34:39.592Z,3.13
2023-06-05T03:37:08.085Z,3.00
2023-06-05T03:39:36.828Z,3.43
2023-06-05T03:42:08.037Z,3.33
2023-06-05T03:44:36.660Z,3.53
2023-06-05T03:47:05.546Z,3.37
2023-06-05T03:49:36.893Z,2.93
2023-06-05T03:52:09.658Z,3.50
2023-06-05T03:54:39.781Z,3.40
2023-06-05T03:57:13.509Z,3.60
2023-06-05T03:59:43.666Z,3.17
2023-06-05T04:02:12.179Z,3.43
2023-06-05T04:04:40.913Z,3.33
2023-06-05T04:07:10.976Z,3.63
2023-06-05T04:09:39.568Z,3.40
2023-06-05T04:12:08.505Z,3.93
2023-06-05T04:14:39.647Z,3.50
2023-06-05T04:17:08.789Z,3.97
2023-06-05T04:19:37.640Z,3.47
2023-06-05T04:22:06.647Z,4.07
2023-06-05T04:24:39.899Z,4.03
2023-06-05T04:27:09.685Z,3.60
2023-06-05T04:29:38.788Z,3.73
2023-06-05T04:32:08.534Z,3.30
2023-06-05T04:34:37.251Z,3.47
2023-06-05T04:37:05.707Z,3.47
2023-06-05T04:42:15.058Z,3.60
2023-06-05T04:44:48.725Z,3.53
2023-06-05T04:47:17.218Z,4.20
2023-06-05T04:49:48.546Z,3.43
2023-06-05T04:52:17.732Z,3.60
2023-06-05T04:54:46.580Z,3.43
2023-06-05T04:57:17.439Z,3.47
2023-06-05T04:59:46.203Z,3.80
2023-06-05T05:02:17.058Z,4.50
2023-06-05T05:04:47.769Z,3.67
2023-06-05T05:07:17.543Z,3.20
2023-06-05T05:09:47.511Z,3.70
2023-06-05T05:12:17.963Z,3.90
2023-06-05T05:14:46.933Z,3.60
2023-06-05T05:17:18.186Z,3.37
2023-06-05T05:19:46.923Z,3.50
2023-06-05T05:22:15.824Z,3.50
2023-06-05T05:24:44.530Z,3.50
2023-06-05T05:27:12.858Z,3.43
2023-06-05T05:29:42.840Z,3.30
2023-06-05T05:32:11.607Z,3.60
2023-06-05T05:34:40.401Z,3.33
2023-06-05T05:37:09.178Z,3.20
2023-06-05T05:39:38.025Z,3.67
2023-06-05T05:42:07.184Z,2.87
2023-06-05T05:44:36.999Z,2.67
2023-06-05T05:47:07.173Z,2.87
2023-06-05T05:49:36.374Z,2.80
2023-06-05T05:52:05.227Z,2.90
2023-06-05T05:54:33.769Z,3.27
2023-06-05T05:57:02.612Z,2.65
2023-06-05T05:59:31.130Z,2.17
2023-06-05T06:02:01.962Z,3.57
2023-06-05T06:04:32.135Z,2.97
2023-06-05T06:07:02.111Z,2.90
2023-06-05T06:09:31.236Z,3.55
2023-06-05T06:12:03.737Z,3.90
2023-06-05T06:14:32.325Z,3.80
2023-06-05T06:17:00.567Z,3.53
2023-06-05T06:19:29.883Z,3.05
2023-06-05T06:21:59.706Z,2.40
2023-06-05T06:24:28.367Z,2.58
2023-06-05T06:26:57.240Z,2.60
2023-06-05T06:29:28.743Z,4.32
2023-06-05T06:31:57.708Z,2.45
2023-06-05T06:34:27.461Z,2.60
2023-06-05T06:36:55.832Z,2.42
2023-06-05T06:39:27.054Z,2.25
2023-06-05T06:41:55.392Z,2.30
2023-06-05T06:44:24.987Z,2.08
2023-06-05T06:46:53.343Z,2.55
2023-06-05T06:49:22.063Z,2.35
2023-06-05T06:51:50.453Z,2.08
2023-06-05T06:54:19.065Z,2.05
2023-06-05T06:56:48.675Z,2.20
2023-06-05T06:59:17.360Z,2.25
2023-06-05T07:01:48.078Z,2.20
2023-06-05T07:04:21.104Z,2.03
2023-06-05T07:06:49.933Z,2.20
2023-06-05T07:09:19.032Z,1.90
2023-06-05T07:11:49.744Z,2.15
2023-06-05T07:14:18.460Z,2.20
2023-06-05T07:16:47.042Z,2.10
2023-06-05T07:19:17.338Z,1.90
2023-06-05T07:21:45.529Z,2.28
2023-06-05T07:24:15.569Z,2.58
2023-06-05T07:26:44.044Z,2.13
2023-06-05T07:29:14.108Z,1.98
2023-06-05T07:31:43.018Z,2.05
2023-06-05T07:34:13.909Z,3.10
2023-06-05T07:36:42.455Z,3.05
2023-06-05T07:39:12.561Z,1.95
2023-06-05T07:41:41.005Z,1.73
2023-06-05T07:44:11.327Z,1.60
2023-06-05T07:46:41.957Z,2.15
2023-06-05T07:49:11.192Z,2.05
2023-06-05T07:51:40.900Z,1.55
2023-06-05T07:54:11.429Z,1.88
2023-06-05T07:56:40.220Z,1.63
2023-06-05T07:59:09.873Z,2.08
2023-06-05T08:01:41.134Z,1.80
2023-06-05T08:04:12.014Z,1.35
2023-06-05T08:06:41.387Z,1.40
2023-06-05T08:09:11.378Z,2.00
2023-06-05T08:11:41.383Z,1.40
2023-06-05T08:14:10.050Z,1.40
2023-06-05T08:16:40.149Z,1.40
2023-06-05T08:19:08.893Z,1.30
2023-06-05T08:21:38.055Z,1.35
2023-06-05T08:24:07.473Z,1.20
2023-06-05T08:26:37.250Z,1.40
2023-06-05T08:29:07.490Z,1.27
2023-06-05T08:31:37.599Z,2.58
2023-06-05T08:34:08.131Z,3.28
2023-06-05T08:36:36.767Z,2.50
2023-06-05T08:39:05.572Z,1.80
2023-06-05T08:41:36.107Z,2.83
2023-06-05T08:44:05.006Z,2.20
2023-06-05T08:46:33.429Z,2.13
2023-06-05T08:49:10.103Z,2.28
2023-06-05T08:51:40.672Z,3.10
2023-06-05T08:54:14.167Z,2.20
2023-06-05T08:56:44.723Z,2.03
2023-06-05T08:59:16.594Z,2.00
2023-06-05T09:01:46.013Z,1.20
2023-06-05T09:04:15.949Z,1.20
2023-06-05T09:06:48.192Z,1.75
2023-06-05T09:09:17.456Z,2.28
2023-06-05T09:11:46.395Z,3.80
2023-06-05T09:14:15.083Z,1.38
2023-06-05T09:16:44.753Z,1.20
2023-06-05T09:19:15.261Z,2.00
2023-06-05T09:21:53.064Z,3.22
2023-06-05T09:24:24.128Z,6.55
2023-06-05T09:26:57.848Z,11.90
2023-06-05T09:29:28.765Z,4.53
2023-06-05T09:31:59.365Z,5.45
2023-06-05T09:34:31.864Z,1.50
2023-06-05T09:37:01.624Z,2.17
2023-06-05T09:39:31.450Z,1.63
2023-06-05T09:42:01.537Z,1.30
2023-06-05T09:44:32.432Z,1.40
2023-06-05T09:47:02.478Z,1.42
2023-06-05T09:49:34.321Z,1.30
2023-06-05T09:52:03.922Z,1.80
2023-06-05T09:54:33.947Z,1.98
2023-06-05T09:57:04.371Z,1.58
2023-06-05T09:59:34.943Z,1.52
2023-06-05T10:02:05.762Z,1.30
2023-06-05T10:04:42.337Z,1.33
2023-06-05T10:07:11.278Z,1.33
2023-06-05T10:09:40.937Z,1.40
2023-06-05T10:12:10.254Z,1.45
2023-06-05T10:14:42.855Z,1.50
2023-06-05T10:17:13.234Z,1.33
2023-06-05T10:19:45.636Z,1.50
2023-06-05T10:22:14.497Z,1.40
2023-06-05T10:24:48.927Z,2.15
2023-06-05T10:27:49.050Z,1.50
2023-06-05T10:30:45.074Z,1.48
2023-06-05T10:33:30.190Z,1.42
2023-06-05T10:36:10.941Z,1.45
2023-06-05T10:38:41.021Z,2.00
2023-06-05T10:41:09.814Z,1.60
2023-06-05T10:43:48.706Z,1.90
2023-06-05T10:46:31.300Z,1.50
2023-06-05T10:49:10.082Z,1.45
2023-06-05T10:51:43.278Z,1.50
2023-06-05T10:54:16.573Z,1.52
2023-06-05T10:57:00.986Z,1.38
2023-06-05T10:59:31.283Z,1.33
2023-06-05T11:02:24.620Z,1.58
2023-06-05T11:05:14.540Z,1.88
2023-06-05T11:07:46.871Z,1.60
2023-06-05T11:10:21.319Z,1.70
2023-06-05T11:13:01.545Z,1.40
2023-06-05T11:15:40.987Z,1.27
2023-06-05T11:18:35.187Z,1.88
2023-06-05T11:21:04.380Z,1.23
2023-06-05T11:23:34.946Z,1.55
2023-06-05T11:26:41.359Z,1.60
2023-06-05T11:29:16.776Z,1.30
2023-06-05T11:31:48.640Z,1.92
2023-06-05T11:34:17.567Z,1.45
2023-06-05T11:36:46.855Z,1.40
2023-06-05T11:39:16.868Z,1.85
2023-06-05T11:41:46.925Z,2.00
2023-06-05T11:44:16.147Z,1.65
2023-06-05T11:46:45.806Z,1.55
2023-06-05T11:49:27.201Z,3.40
2023-06-05T11:51:56.112Z,2.58
2023-06-05T11:54:31.820Z,2.80
2023-06-05T11:57:02.983Z,1.90
2023-06-05T11:59:32.050Z,1.83
2023-06-05T12:02:00.851Z,1.63
2023-06-05T12:04:29.595Z,2.90
2023-06-05T12:06:58.432Z,2.17
2023-06-05T12:09:27.360Z,1.70
2023-06-05T12:12:07.470Z,2.03
2023-06-05T12:14:36.764Z,1.60
2023-06-05T12:17:11.410Z,2.22
2023-06-05T12:19:40.459Z,2.47
2023-06-05T12:22:10.519Z,2.08
2023-06-05T12:24:39.699Z,1.50
2023-06-05T12:27:10.775Z,2.03
2023-06-05T12:29:41.025Z,1.88
2023-06-05T12:32:23.929Z,2.40
2023-06-05T12:35:01.520Z,2.17
2023-06-05T12:37:35.693Z,1.65
2023-06-05T12:40:09.495Z,1.63
2023-06-05T12:42:40.795Z,1.40
2023-06-05T12:45:10.889Z,1.80
2023-06-05T12:47:40.460Z,1.85
2023-06-05T12:50:13.081Z,1.60
2023-06-05T12:52:42.188Z,1.70
2023-06-05T12:55:12.139Z,2.80
2023-06-05T12:57:42.027Z,1.92
2023-06-05T13:00:14.361Z,1.77
2023-06-05T13:02:46.031Z,2.58
2023-06-05T13:05:15.614Z,1.75
2023-06-05T13:07:44.133Z,1.73
2023-06-05T13:10:13.181Z,1.92
2023-06-05T13:12:43.623Z,1.75
2023-06-05T13:15:13.165Z,4.43
2023-06-05T13:17:44.094Z,2.35
2023-06-05T13:20:13.884Z,4.88
2023-06-05T13:22:42.820Z,2.75
2023-06-05T13:25:12.061Z,2.80
2023-06-05T13:27:42.054Z,2.10
2023-06-05T13:30:11.482Z,2.22
2023-06-05T13:32:40.372Z,2.17
2023-06-05T13:35:10.438Z,2.47
2023-06-05T13:37:39.688Z,2.30
2023-06-05T13:40:11.712Z,1.90
2023-06-05T13:42:42.237Z,1.70
2023-06-05T13:45:12.130Z,1.63
2023-06-05T13:47:40.609Z,2.03
2023-06-05T13:50:10.212Z,1.80
2023-06-05T13:52:38.645Z,1.90
2023-06-05T13:55:08.678Z,2.00
2023-06-05T13:57:37.323Z,1.90
2023-06-05T14:00:09.290Z,1.80
2023-06-05T14:02:39.257Z,1.77
2023-06-05T14:05:11.706Z,1.73
2023-06-05T14:07:48.982Z,1.58
2023-06-05T14:10:20.470Z,1.63
2023-06-05T14:12:48.880Z,1.77
2023-06-05T14:15:19.627Z,1.42
2023-06-05T14:17:48.953Z,1.38
2023-06-05T14:20:17.691Z,1.60
2023-06-05T14:22:46.157Z,1.50
2023-06-05T14:25:14.814Z,2.20
2023-06-05T14:27:43.298Z,1.58
2023-06-05T14:30:12.610Z,1.60
2023-06-05T14:32:42.988Z,1.45
2023-06-05T14:35:11.903Z,1.65
2023-06-05T14:37:40.159Z,1.80
2023-06-05T14:40:10.195Z,1.98
2023-06-05T14:42:38.488Z,1.58
2023-06-05T14:45:08.082Z,2.13
2023-06-05T14:51:15.165Z,1.42
2023-06-05T14:53:43.594Z,1.77
2023-06-05T14:56:12.282Z,1.52
2023-06-05T14:58:40.457Z,1.95
2023-06-05T15:01:09.044Z,2.00
2023-06-05T15:03:37.468Z,2.30
2023-06-05T15:06:20.168Z,2.10
2023-06-05T15:08:53.084Z,2.30
2023-06-05T15:11:22.108Z,1.80
2023-06-05T15:13:50.506Z,2.78
2023-06-05T15:16:25.894Z,2.33
2023-06-05T15:19:01.314Z,2.60
2023-06-05T15:21:30.178Z,1.70
2023-06-05T15:23:59.897Z,1.77
2023-06-05T15:26:28.770Z,2.50
2023-06-05T15:28:57.309Z,2.80
2023-06-05T15:31:26.010Z,2.58
2023-06-05T15:33:54.370Z,2.08
2023-06-05T15:36:22.963Z,3.40
2023-06-05T15:38:51.237Z,2.58
2023-06-05T15:41:21.150Z,2.72
2023-06-05T15:43:49.530Z,1.70
2023-06-05T15:46:18.226Z,2.30
2023-06-05T15:48:46.722Z,1.80
2023-06-05T15:51:15.369Z,1.95
2023-06-05T15:53:55.085Z,1.58
2023-06-05T15:56:27.462Z,1.80
2023-06-05T15:58:55.976Z,1.83
2023-06-05T16:01:24.896Z,1.95
2023-06-05T16:03:53.571Z,2.13
2023-06-05T16:06:22.614Z,2.60
2023-06-05T16:08:51.780Z,2.95
2023-06-05T16:11:21.024Z,2.40
2023-06-05T16:13:50.979Z,3.50
2023-06-05T16:16:19.827Z,2.83
2023-06-05T16:18:48.244Z,2.38
2023-06-05T16:21:17.431Z,2.13
2023-06-05T16:23:46.164Z,2.28
2023-06-05T16:26:14.969Z,2.10
2023-06-05T16:28:43.435Z,3.00
2023-06-05T16:31:15.846Z,2.70
2023-06-05T16:33:44.188Z,2.00
2023-06-05T16:36:14.078Z,2.90
2023-06-05T16:38:43.396Z,3.05
2023-06-05T16:41:12.326Z,3.55
2023-06-05T16:43:40.846Z,3.28
2023-06-05T16:46:09.917Z,4.38
2023-06-05T16:48:39.844Z,4.18
2023-06-05T16:51:11.378Z,8.02
2023-06-05T16:53:40.098Z,3.63
2023-06-05T16:56:08.732Z,8.18
2023-06-05T16:58:39.765Z,12.75
2023-06-05T17:01:08.844Z,7.13
2023-06-05T17:03:37.489Z,11.15
2023-06-05T17:06:09.101Z,26.70
2023-06-05T17:08:38.142Z,7.97
2023-06-05T17:11:06.956Z,11.18
2023-06-05T17:13:35.561Z,4.10
2023-06-05T17:16:04.546Z,13.73
2023-06-05T17:18:32.926Z,11.20
2023-06-05T17:21:01.561Z,13.93
2023-06-05T17:23:31.519Z,8.13
2023-06-05T17:26:00.167Z,18.13
2023-06-05T17:28:28.601Z,32.13
2023-06-05T17:30:57.269Z,20.00
2023-06-05T17:33:25.658Z,7.28
2023-06-05T17:35:54.293Z,19.00
2023-06-05T17:38:22.743Z,15.10
2023-06-05T17:40:52.656Z,7.93
2023-06-05T17:43:21.120Z,8.52
2023-06-05T17:45:49.749Z,6.40
2023-06-05T17:48:18.255Z,8.05
2023-06-05T17:50:47.073Z,6.97
2023-06-05T17:53:17.364Z,23.38
2023-06-05T17:55:46.184Z,21.48
2023-06-05T17:58:17.209Z,13.65
2023-06-05T18:00:46.273Z,15.25
2023-06-05T18:03:15.038Z,13.57
2023-06-05T18:05:43.887Z,8.25
2023-06-05T18:08:13.685Z,7.35
2023-06-05T18:10:42.270Z,7.60
2023-06-05T18:13:11.024Z,8.63
2023-06-05T18:15:41.241Z,5.10
2023-06-05T18:18:10.585Z,11.00
2023-06-05T18:20:39.349Z,17.23
2023-06-05T18:23:07.745Z,14.40
2023-06-05T18:25:36.461Z,11.52
2023-06-05T18:28:04.946Z,8.20
2023-06-05T18:30:33.550Z,10.32
2023-06-05T18:33:03.481Z,7.05
2023-06-05T18:35:32.368Z,9.23
2023-06-05T18:38:00.672Z,11.75
2023-06-05T18:40:30.272Z,7.50
2023-06-05T18:43:00.236Z,6.00
2023-06-05T18:45:28.922Z,5.85
2023-06-05T18:47:57.314Z,5.40
2023-06-05T18:50:28.384Z,12.50
2023-06-05T18:52:57.046Z,21.98
2023-06-05T18:55:26.452Z,14.60
2023-06-05T18:57:54.857Z,7.13
2023-06-05T19:00:25.436Z,5.20
2023-06-05T19:02:53.989Z,7.93
2023-06-05T19:05:23.018Z,11.50
2023-06-05T19:07:52.735Z,20.63
2023-06-05T19:10:21.589Z,14.82
2023-06-05T19:12:49.865Z,11.40
2023-06-05T19:15:19.569Z,8.40
2023-06-05T19:17:47.974Z,8.88
2023-06-05T19:20:16.849Z,5.50
2023-06-05T19:22:45.175Z,7.20
2023-06-05T19:25:15.629Z,4.60
2023-06-05T19:27:44.057Z,5.05
2023-06-05T19:30:14.320Z,3.70
2023-06-05T19:32:43.082Z,3.70
2023-06-05T19:35:12.511Z,3.20
2023-06-05T19:37:41.132Z,2.90
2023-06-05T19:40:10.667Z,3.08
2023-06-05T19:42:41.632Z,5.50
2023-06-05T19:45:13.320Z,10.70
2023-06-05T19:47:42.730Z,7.32
2023-06-05T19:50:14.142Z,4.00
2023-06-05T19:52:42.791Z,3.30
2023-06-05T19:55:11.768Z,12.05
2023-06-05T19:57:42.191Z,3.70
2023-06-05T20:00:11.631Z,2.92
2023-06-05T20:02:44.171Z,2.75
2023-06-05T20:05:14.044Z,2.50
2023-06-05T20:07:42.570Z,2.35
2023-06-05T20:10:12.172Z,2.40
2023-06-05T20:12:42.077Z,2.67
2023-06-05T20:15:11.847Z,2.75
2023-06-05T20:17:40.320Z,2.70
2023-06-05T20:20:10.403Z,2.92
2023-06-05T20:22:38.737Z,3.05
2023-06-05T20:25:09.716Z,2.45
2023-06-05T20:27:39.242Z,2.28
2023-06-05T20:30:10.517Z,2.85
2023-06-05T20:32:39.059Z,2.90
2023-06-05T20:35:09.584Z,2.83
2023-06-05T20:37:38.937Z,2.90
2023-06-05T20:40:11.074Z,2.75
2023-06-05T20:42:39.725Z,2.88
2023-06-05T20:45:11.580Z,2.83
2023-06-05T20:47:40.273Z,3.38
2023-06-05T20:50:10.729Z,3.30
2023-06-05T20:52:39.109Z,3.45
2023-06-05T20:55:08.470Z,3.22
2023-06-05T20:57:37.249Z,2.75
2023-06-05T21:00:10.245Z,2.55
2023-06-05T21:02:40.314Z,2.65
2023-06-05T21:05:09.564Z,3.00
2023-06-05T21:07:38.250Z,2.90
2023-06-05T21:10:07.424Z,2.85
2023-06-05T21:12:35.740Z,2.50
2023-06-05T21:15:04.748Z,2.95
2023-06-05T21:17:34.809Z,2.90
2023-06-05T21:20:06.369Z,3.30
2023-06-05T21:22:36.226Z,2.72
2023-06-05T21:25:05.566Z,2.65
2023-06-05T21:27:34.053Z,2.50
2023-06-05T21:30:02.718Z,2.55
2023-06-05T21:32:31.276Z,2.83
2023-06-05T21:34:59.906Z,3.38
2023-06-05T21:37:29.572Z,2.80
2023-06-05T21:39:58.468Z,2.65
2023-06-05T21:42:26.919Z,2.83
2023-06-05T21:44:55.599Z,3.17
2023-06-05T21:47:24.021Z,2.97
2023-06-05T21:49:52.621Z,3.10
2023-06-05T21:52:20.946Z,3.03
2023-06-05T21:54:51.045Z,3.33
2023-06-05T21:57:19.710Z,2.90
2023-06-05T21:59:48.159Z,3.35
2023-06-05T22:02:16.665Z,3.33
2023-06-05T22:04:47.411Z,5.53
2023-06-05T22:07:17.734Z,5.40
2023-06-05T22:09:46.487Z,5.25
2023-06-05T22:12:21.894Z,4.47
2023-06-05T22:14:52.716Z,4.25
2023-06-05T22:17:26.167Z,4.47
2023-06-05T22:19:56.177Z,4.07
2023-06-05T22:22:25.284Z,4.15
2023-06-05T22:24:57.735Z,3.92
2023-06-05T22:27:27.719Z,3.83
2023-06-05T22:29:56.775Z,3.47
2023-06-05T22:32:25.701Z,3.75
2023-06-05T22:34:54.589Z,3.25
2023-06-05T22:37:26.273Z,3.78
2023-06-05T22:39:55.036Z,3.45
2023-06-05T22:42:23.534Z,3.70
2023-06-05T22:44:53.535Z,3.47
2023-06-05T22:47:21.947Z,3.63
2023-06-05T22:49:53.863Z,3.90
2023-06-05T22:52:22.522Z,4.03
2023-06-05T22:54:51.614Z,3.70
2023-06-05T22:57:20.061Z,3.60
2023-06-05T22:59:49.756Z,3.28
2023-06-05T23:02:19.711Z,3.30
2023-06-05T23:04:50.073Z,3.42
2023-06-05T23:07:19.254Z,3.22
2023-06-05T23:09:47.845Z,4.47
2023-06-05T23:12:16.558Z,4.07
2023-06-05T23:14:45.149Z,5.43
2023-06-05T23:17:13.763Z,3.97
2023-06-05T23:19:43.646Z,4.15
2023-06-05T23:22:11.979Z,5.25
2023-06-05T23:24:40.602Z,4.18
2023-06-05T23:27:10.436Z,3.83
2023-06-05T23:29:39.673Z,3.35
2023-06-05T23:32:09.129Z,3.67
2023-06-05T23:34:37.847Z,3.45
2023-06-05T23:37:09.770Z,3.33
2023-06-05T23:39:38.555Z,3.72
2023-06-05T23:42:09.228Z,3.38
2023-06-05T23:44:37.894Z,3.35
2023-06-05T23:47:06.901Z,3.45
2023-06-05T23:49:35.757Z,3.35
2023-06-05T23:52:04.561Z,3.95
2023-06-05T23:54:34.909Z,3.67
2023-06-05T23:57:03.250Z,3.40
2023-06-05T23:59:31.919Z,3.60
